createdAt,value
2023-01-29T00:00:46.359Z,8.18
2023-01-29T00:03:51.457Z,8.73
2023-01-29T00:06:53.237Z,8.57
2023-01-29T00:09:55.478Z,9.27
2023-01-29T00:12:59.129Z,9.45
2023-01-29T00:16:02.689Z,8.88
2023-01-29T00:19:04.533Z,8.60
2023-01-29T00:22:06.241Z,9.25
2023-01-29T00:25:09.856Z,8.90
2023-01-29T00:28:12.744Z,8.45
2023-01-29T00:31:19.796Z,8.73
2023-01-29T00:34:23.091Z,9.18
2023-01-29T00:37:27.841Z,9.50
2023-01-29T00:40:49.482Z,9.13
2023-01-29T00:44:09.981Z,10.25
2023-01-29T00:47:30.325Z,9.35
2023-01-29T00:50:32.332Z,10.38
2023-01-29T00:53:34.072Z,9.55
2023-01-29T00:56:37.291Z,10.77
2023-01-29T00:59:38.995Z,11.30
2023-01-29T01:02:59.479Z,11.23
2023-01-29T01:06:10.009Z,11.73
2023-01-29T01:09:30.415Z,11.10
2023-01-29T01:12:32.761Z,10.60
2023-01-29T01:15:36.627Z,10.48
2023-01-29T01:18:38.663Z,9.68
2023-01-29T01:21:40.659Z,11.90
2023-01-29T01:24:42.396Z,12.07
2023-01-29T01:27:44.337Z,10.77
2023-01-29T01:30:46.516Z,10.65
2023-01-29T01:33:48.469Z,9.95
2023-01-29T01:36:50.206Z,10.15
2023-01-29T01:39:52.017Z,9.48
2023-01-29T01:42:56.775Z,9.57
2023-01-29T01:45:58.466Z,10.95
2023-01-29T01:49:15.900Z,9.90
2023-01-29T01:52:19.762Z,10.45
2023-01-29T01:55:26.368Z,9.93
2023-01-29T01:58:33.975Z,10.35
2023-01-29T02:05:06.517Z,9.98
2023-01-29T02:08:27.691Z,10.30
2023-01-29T02:11:30.476Z,9.80
2023-01-29T02:14:39.599Z,10.23
2023-01-29T02:17:41.647Z,9.65
2023-01-29T02:21:03.022Z,10.63
2023-01-29T02:24:26.092Z,8.77
2023-01-29T02:27:49.151Z,10.10
2023-01-29T02:31:04.383Z,9.73
2023-01-29T02:34:20.660Z,10.43
2023-01-29T02:37:44.291Z,10.80
2023-01-29T02:40:54.236Z,9.48
2023-01-29T02:44:12.713Z,10.15
2023-01-29T02:47:31.074Z,11.57
2023-01-29T02:50:41.775Z,9.93
2023-01-29T02:53:58.608Z,10.00
2023-01-29T02:57:32.578Z,8.88
2023-01-29T03:00:39.745Z,8.68
2023-01-29T03:03:46.041Z,9.15
2023-01-29T03:06:58.515Z,8.45
2023-01-29T03:10:03.326Z,7.57
2023-01-29T03:13:26.491Z,8.82
2023-01-29T03:16:36.944Z,9.65
2023-01-29T03:19:44.142Z,8.68
2023-01-29T03:22:52.404Z,9.98
2023-01-29T03:26:17.800Z,9.07
2023-01-29T03:29:39.036Z,8.85
2023-01-29T03:32:43.025Z,8.40
2023-01-29T03:35:59.316Z,8.55
2023-01-29T03:39:01.077Z,9.20
2023-01-29T03:42:21.178Z,8.40
2023-01-29T03:45:43.772Z,9.57
2023-01-29T03:49:01.399Z,9.30
2023-01-29T03:52:15.731Z,10.15
2023-01-29T03:55:24.900Z,8.93
2023-01-29T03:58:54.661Z,8.98
2023-01-29T04:02:00.292Z,18.92
2023-01-29T04:05:14.872Z,10.93
2023-01-29T04:08:27.879Z,8.77
2023-01-29T04:11:31.182Z,10.98
2023-01-29T04:14:33.216Z,9.93
2023-01-29T04:17:39.811Z,10.85
2023-01-29T04:20:42.147Z,9.55
2023-01-29T04:23:44.944Z,9.55
2023-01-29T04:26:46.632Z,9.95
2023-01-29T04:30:04.720Z,9.23
2023-01-29T04:36:20.061Z,9.30
2023-01-29T04:39:32.848Z,8.68
2023-01-29T04:42:44.322Z,9.57
2023-01-29T04:45:54.808Z,8.43
2023-01-29T04:49:05.365Z,8.00
2023-01-29T04:52:24.451Z,8.13
2023-01-29T04:55:49.423Z,8.02
2023-01-29T04:58:57.251Z,7.80
2023-01-29T05:02:02.383Z,8.70
2023-01-29T05:05:06.230Z,8.60
2023-01-29T05:08:09.211Z,8.57
2023-01-29T05:11:11.705Z,8.80
2023-01-29T05:14:17.083Z,8.15
2023-01-29T05:17:20.747Z,9.30
2023-01-29T05:20:22.520Z,9.35
2023-01-29T05:23:24.534Z,9.18
2023-01-29T05:26:45.982Z,8.63
2023-01-29T05:29:47.977Z,10.07
2023-01-29T05:32:49.695Z,8.75
2023-01-29T05:35:51.431Z,10.25
2023-01-29T05:38:53.108Z,9.90
2023-01-29T05:41:55.019Z,11.43
2023-01-29T05:44:57.847Z,10.13
2023-01-29T05:48:00.437Z,10.40
2023-01-29T05:51:05.610Z,10.10
2023-01-29T05:54:07.260Z,9.70
2023-01-29T05:57:09.029Z,9.98
2023-01-29T06:00:13.180Z,10.07
2023-01-29T06:03:15.121Z,10.02
2023-01-29T06:06:17.389Z,10.25
2023-01-29T06:09:19.158Z,9.95
2023-01-29T06:12:21.040Z,9.48
2023-01-29T06:15:22.777Z,9.10
2023-01-29T06:18:24.656Z,9.77
2023-01-29T06:21:26.324Z,10.00
2023-01-29T06:24:28.018Z,9.68
2023-01-29T06:27:29.828Z,11.88
2023-01-29T06:30:31.998Z,12.88
2023-01-29T06:33:34.127Z,13.38
2023-01-29T06:36:36.107Z,14.75
2023-01-29T06:39:37.787Z,13.68
2023-01-29T06:42:39.409Z,12.43
2023-01-29T06:45:55.263Z,15.52
2023-01-29T06:49:02.603Z,16.55
2023-01-29T06:52:04.432Z,14.80
2023-01-29T06:55:06.615Z,14.38
2023-01-29T06:58:10.192Z,13.50
2023-01-29T07:01:17.509Z,15.85
2023-01-29T07:04:31.016Z,16.98
2023-01-29T07:07:35.847Z,17.23
2023-01-29T07:10:37.596Z,15.80
2023-01-29T07:13:39.322Z,10.80
2023-01-29T07:16:41.105Z,11.43
2023-01-29T07:19:42.854Z,12.02
2023-01-29T07:22:45.587Z,12.00
2023-01-29T07:25:49.952Z,13.57
2023-01-29T07:28:52.664Z,13.73
2023-01-29T07:31:54.550Z,13.15
2023-01-29T07:34:56.399Z,13.85
2023-01-29T07:37:58.342Z,13.70
2023-01-29T07:41:01.365Z,13.45
2023-01-29T07:44:04.799Z,12.35
2023-01-29T07:47:06.505Z,15.13
2023-01-29T07:50:08.773Z,14.85
2023-01-29T07:53:16.564Z,16.37
2023-01-29T07:56:18.339Z,14.02
2023-01-29T07:59:20.106Z,13.20
2023-01-29T08:02:22.848Z,15.18
2023-01-29T08:05:27.740Z,15.75
2023-01-29T08:08:30.716Z,15.65
2023-01-29T08:11:33.449Z,14.90
2023-01-29T08:14:36.405Z,15.23
2023-01-29T08:17:52.542Z,15.65
2023-01-29T08:21:00.930Z,15.90
2023-01-29T08:24:03.848Z,16.30
2023-01-29T08:27:05.563Z,16.83
2023-01-29T08:30:08.612Z,18.08
2023-01-29T08:33:10.453Z,19.30
2023-01-29T08:36:12.204Z,18.50
2023-01-29T08:39:13.985Z,19.15
2023-01-29T08:42:15.758Z,19.98
2023-01-29T08:45:17.513Z,20.02
2023-01-29T08:48:19.386Z,20.42
2023-01-29T08:51:22.543Z,19.83
2023-01-29T08:54:25.266Z,20.17
2023-01-29T08:57:28.998Z,19.52
2023-01-29T09:00:31.157Z,18.77
2023-01-29T09:03:32.910Z,20.58
2023-01-29T09:06:42.612Z,19.50
2023-01-29T09:09:44.288Z,19.10
2023-01-29T09:12:47.056Z,20.95
2023-01-29T09:15:48.721Z,19.30
2023-01-29T09:18:53.455Z,18.80
2023-01-29T09:21:56.324Z,19.02
2023-01-29T09:24:58.091Z,21.02
2023-01-29T09:27:59.813Z,18.58
2023-01-29T09:31:03.131Z,21.33
2023-01-29T09:34:05.093Z,23.83
2023-01-29T09:37:06.859Z,24.27
2023-01-29T09:40:30.703Z,22.42
2023-01-29T09:43:51.140Z,21.17
2023-01-29T09:46:55.773Z,20.23
2023-01-29T09:50:00.035Z,19.05
2023-01-29T09:53:11.418Z,18.65
2023-01-29T09:56:20.007Z,17.10
2023-01-29T09:59:24.849Z,16.67
2023-01-29T10:02:35.298Z,16.48
2023-01-29T10:05:56.224Z,15.10
2023-01-29T10:09:10.013Z,15.60
2023-01-29T10:12:24.965Z,17.83
2023-01-29T10:15:52.332Z,19.35
2023-01-29T10:18:56.848Z,24.35
2023-01-29T10:22:14.022Z,30.40
2023-01-29T10:25:20.262Z,22.07
2023-01-29T10:28:46.500Z,47.15
2023-01-29T10:31:55.098Z,38.30
2023-01-29T10:35:02.666Z,25.45
2023-01-29T10:41:30.269Z,17.67
2023-01-29T10:44:54.091Z,16.80
2023-01-29T10:48:26.466Z,16.90
2023-01-29T10:52:00.553Z,15.70
2023-01-29T10:55:23.554Z,18.05
2023-01-29T10:58:46.789Z,18.00
2023-01-29T11:01:48.904Z,19.02
2023-01-29T11:04:50.679Z,18.52
2023-01-29T11:08:05.363Z,18.20
2023-01-29T11:11:18.930Z,19.37
2023-01-29T11:14:42.821Z,17.27
2023-01-29T11:18:15.400Z,16.00
2023-01-29T11:21:17.510Z,17.45
2023-01-29T11:24:19.348Z,16.37
2023-01-29T11:27:26.536Z,16.15
2023-01-29T11:30:34.266Z,16.45
2023-01-29T11:33:36.181Z,19.17
2023-01-29T11:36:39.282Z,21.05
2023-01-29T11:39:47.218Z,17.83
2023-01-29T11:42:49.936Z,17.20
2023-01-29T11:45:56.438Z,17.42
2023-01-29T11:48:59.274Z,14.55
2023-01-29T11:52:10.622Z,24.92
2023-01-29T11:55:19.716Z,58.05
2023-01-29T11:58:32.852Z,27.23
2023-01-29T12:01:38.616Z,23.12
2023-01-29T12:04:41.656Z,17.77
2023-01-29T12:07:45.740Z,20.35
2023-01-29T12:10:48.155Z,16.42
2023-01-29T12:13:54.970Z,16.05
2023-01-29T12:17:05.608Z,26.08
2023-01-29T12:20:16.734Z,25.20
2023-01-29T12:23:48.497Z,16.25
2023-01-29T12:27:13.182Z,14.45
2023-01-29T12:31:01.428Z,15.65
2023-01-29T12:34:17.564Z,16.25
2023-01-29T12:37:25.901Z,13.57
2023-01-29T12:40:51.728Z,15.65
2023-01-29T12:43:58.062Z,13.77
2023-01-29T12:47:03.311Z,15.40
2023-01-29T12:50:32.652Z,14.87
2023-01-29T12:53:43.571Z,14.07
2023-01-29T12:56:53.899Z,12.45
2023-01-29T13:00:02.743Z,13.07
2023-01-29T13:03:17.159Z,13.80
2023-01-29T13:06:31.524Z,13.75
2023-01-29T13:09:37.587Z,15.25
2023-01-29T13:12:43.601Z,20.12
2023-01-29T13:15:47.346Z,19.42
2023-01-29T13:19:00.634Z,16.62
2023-01-29T13:22:07.216Z,16.23
2023-01-29T13:25:17.958Z,14.60
2023-01-29T13:28:23.824Z,14.48
2023-01-29T13:31:38.105Z,16.40
2023-01-29T13:34:49.183Z,18.62
2023-01-29T13:37:55.440Z,16.15
2023-01-29T13:41:03.400Z,15.65
2023-01-29T13:44:08.804Z,13.10
2023-01-29T13:47:22.517Z,13.27
2023-01-29T13:50:39.854Z,12.70
2023-01-29T13:53:43.550Z,12.37
2023-01-29T13:56:59.190Z,12.25
2023-01-29T14:00:01.281Z,12.40
2023-01-29T14:03:08.646Z,15.55
2023-01-29T14:06:10.509Z,16.12
2023-01-29T14:09:31.049Z,11.65
2023-01-29T14:12:37.693Z,12.85
2023-01-29T14:15:40.253Z,13.10
2023-01-29T14:18:56.731Z,13.13
2023-01-29T14:21:59.155Z,12.27
2023-01-29T14:25:05.439Z,11.98
2023-01-29T14:28:19.354Z,12.98
2023-01-29T14:31:50.914Z,12.02
2023-01-29T14:35:19.876Z,12.37
2023-01-29T14:38:25.190Z,12.57
2023-01-29T14:41:33.696Z,14.52
2023-01-29T14:44:45.218Z,14.98
2023-01-29T14:47:48.238Z,12.35
2023-01-29T14:50:56.038Z,13.15
2023-01-29T14:54:19.008Z,12.68
2023-01-29T14:57:21.124Z,11.25
2023-01-29T15:00:27.939Z,12.55
2023-01-29T15:03:40.005Z,11.90
2023-01-29T15:06:54.468Z,11.43
2023-01-29T15:10:22.660Z,12.10
2023-01-29T15:13:37.871Z,11.60
2023-01-29T15:16:48.768Z,11.55
2023-01-29T15:19:50.951Z,10.77
2023-01-29T15:22:53.059Z,11.68
2023-01-29T15:26:02.147Z,12.70
2023-01-29T15:29:06.064Z,11.55
2023-01-29T15:32:11.269Z,11.10
2023-01-29T15:35:28.612Z,11.57
2023-01-29T15:38:31.023Z,13.17
2023-01-29T15:41:33.341Z,11.00
2023-01-29T15:44:35.608Z,10.57
2023-01-29T15:47:37.803Z,9.90
2023-01-29T15:50:42.112Z,10.82
2023-01-29T15:53:58.885Z,9.20
2023-01-29T15:57:02.159Z,12.48
2023-01-29T16:00:06.998Z,11.12
2023-01-29T16:03:16.561Z,8.90
2023-01-29T16:06:19.747Z,8.63
2023-01-29T16:09:25.381Z,10.05
2023-01-29T16:12:29.175Z,8.95
2023-01-29T16:15:37.038Z,9.50
2023-01-29T16:18:54.203Z,9.23
2023-01-29T16:22:06.388Z,10.13
2023-01-29T16:25:15.289Z,9.20
2023-01-29T16:28:19.018Z,9.48
2023-01-29T16:31:28.828Z,10.32
2023-01-29T16:34:44.672Z,11.25
2023-01-29T16:37:52.855Z,11.82
2023-01-29T16:41:22.743Z,12.35
2023-01-29T16:44:46.215Z,15.85
2023-01-29T16:48:02.179Z,12.18
2023-01-29T16:51:07.909Z,17.73
2023-01-29T16:54:18.626Z,19.25
2023-01-29T16:57:25.964Z,17.52
2023-01-29T17:00:32.329Z,19.60
2023-01-29T17:03:40.877Z,14.70
2023-01-29T17:06:47.821Z,12.82
2023-01-29T17:09:54.747Z,13.30
2023-01-29T17:12:57.183Z,12.90
2023-01-29T17:16:17.028Z,12.77
2023-01-29T17:19:22.079Z,11.73
2023-01-29T17:22:25.154Z,11.00
2023-01-29T17:25:29.332Z,10.77
2023-01-29T17:28:32.267Z,12.30
2023-01-29T17:31:35.285Z,13.60
2023-01-29T17:34:37.836Z,12.05
2023-01-29T17:37:42.095Z,12.93
2023-01-29T17:41:19.532Z,11.40
2023-01-29T17:44:22.780Z,14.63
2023-01-29T17:47:25.683Z,13.90
2023-01-29T17:50:32.563Z,12.90
2023-01-29T17:53:45.598Z,11.82
2023-01-29T17:56:51.633Z,10.88
2023-01-29T17:59:54.284Z,8.95
2023-01-29T18:02:58.514Z,8.82
2023-01-29T18:06:01.036Z,9.48
2023-01-29T18:09:05.060Z,9.57
2023-01-29T18:12:11.667Z,8.52
2023-01-29T18:15:14.595Z,6.85
2023-01-29T18:18:23.238Z,8.13
2023-01-29T18:21:25.627Z,6.87
2023-01-29T18:24:28.152Z,7.50
2023-01-29T18:27:30.667Z,7.20
2023-01-29T18:30:34.520Z,7.65
2023-01-29T18:33:38.223Z,9.10
2023-01-29T18:36:41.690Z,7.50
2023-01-29T18:39:44.276Z,7.57
2023-01-29T18:42:47.544Z,6.78
2023-01-29T18:45:50.352Z,6.95
2023-01-29T18:48:53.352Z,7.32
2023-01-29T18:51:56.295Z,7.62
2023-01-29T18:54:58.976Z,7.95
2023-01-29T18:58:26.146Z,8.27
2023-01-29T19:01:29.009Z,8.27
2023-01-29T19:04:31.471Z,8.05
2023-01-29T19:07:35.526Z,9.25
2023-01-29T19:10:44.196Z,8.52
2023-01-29T19:13:48.541Z,8.68
2023-01-29T19:16:52.360Z,8.70
2023-01-29T19:19:56.897Z,10.82
2023-01-29T19:23:04.074Z,10.75
2023-01-29T19:26:09.042Z,9.45
2023-01-29T19:29:12.043Z,10.32
2023-01-29T19:32:15.664Z,9.85
2023-01-29T19:35:19.744Z,9.48
2023-01-29T19:38:22.993Z,9.95
2023-01-29T19:41:25.871Z,10.40
2023-01-29T19:44:30.714Z,10.60
2023-01-29T19:47:42.290Z,9.93
2023-01-29T19:50:52.092Z,9.77
2023-01-29T19:53:55.886Z,10.88
2023-01-29T19:56:58.718Z,10.02
2023-01-29T20:00:01.709Z,10.57
2023-01-29T20:03:05.023Z,11.00
2023-01-29T20:06:14.288Z,10.43
2023-01-29T20:09:18.130Z,11.95
2023-01-29T20:12:21.040Z,10.13
2023-01-29T20:15:23.480Z,11.00
2023-01-29T20:18:28.338Z,10.10
2023-01-29T20:21:32.322Z,10.50
2023-01-29T20:24:40.574Z,10.73
2023-01-29T20:27:44.615Z,11.32
2023-01-29T20:30:48.491Z,11.65
2023-01-29T20:33:51.839Z,11.60
2023-01-29T20:36:54.784Z,11.12
2023-01-29T20:39:57.647Z,12.20
2023-01-29T20:43:00.396Z,11.43
2023-01-29T20:46:04.531Z,12.25
2023-01-29T20:49:09.608Z,11.55
2023-01-29T20:52:13.211Z,11.65
2023-01-29T20:55:19.562Z,10.93
2023-01-29T20:58:25.223Z,12.07
2023-01-29T21:01:28.046Z,11.65
2023-01-29T21:04:31.610Z,12.45
2023-01-29T21:07:35.391Z,12.23
2023-01-29T21:10:39.496Z,13.30
2023-01-29T21:13:44.112Z,15.75
2023-01-29T21:16:47.928Z,14.45
2023-01-29T21:19:50.760Z,12.35
2023-01-29T21:22:55.773Z,13.98
2023-01-29T21:26:05.974Z,15.30
2023-01-29T21:29:08.337Z,13.68
2023-01-29T21:32:11.958Z,13.50
2023-01-29T21:35:17.416Z,15.88
2023-01-29T21:38:20.560Z,15.85
2023-01-29T21:41:43.437Z,14.55
2023-01-29T21:44:47.616Z,15.10
2023-01-29T21:47:55.377Z,15.40
2023-01-29T21:50:57.761Z,15.25
2023-01-29T21:53:59.668Z,15.43
2023-01-29T21:57:04.860Z,15.55
2023-01-29T22:00:16.171Z,17.42
2023-01-29T22:03:20.191Z,15.60
2023-01-29T22:06:29.911Z,17.35
2023-01-29T22:09:35.483Z,15.48
2023-01-29T22:12:44.563Z,15.55
2023-01-29T22:15:47.628Z,16.10
2023-01-29T22:18:58.744Z,16.23
2023-01-29T22:22:10.106Z,17.23
2023-01-29T22:25:20.933Z,15.18
2023-01-29T22:28:24.809Z,15.57
2023-01-29T22:31:28.760Z,17.08
2023-01-29T22:34:36.057Z,15.27
2023-01-29T22:37:37.751Z,16.92
2023-01-29T22:40:40.623Z,16.15
2023-01-29T22:43:44.020Z,17.02
2023-01-29T22:46:45.928Z,16.85
2023-01-29T22:49:50.098Z,16.05
2023-01-29T22:52:53.604Z,16.90
2023-01-29T22:55:55.752Z,16.33
2023-01-29T22:58:59.329Z,17.02
2023-01-29T23:02:02.015Z,16.67
2023-01-29T23:05:04.419Z,15.00
2023-01-29T23:08:06.440Z,16.02
2023-01-29T23:11:14.717Z,15.45
2023-01-29T23:14:16.848Z,15.40
2023-01-29T23:17:18.553Z,16.00
2023-01-29T23:20:21.819Z,15.77
2023-01-29T23:23:23.574Z,15.00
2023-01-29T23:26:44.402Z,16.27
2023-01-29T23:29:48.601Z,15.48
2023-01-29T23:32:51.356Z,15.25
2023-01-29T23:35:54.083Z,15.68
2023-01-29T23:38:55.827Z,15.43
2023-01-29T23:41:58.723Z,15.98
2023-01-29T23:45:00.489Z,16.60
2023-01-29T23:48:02.158Z,15.30
2023-01-29T23:51:04.249Z,15.68
2023-01-29T23:54:06.935Z,16.25
2023-01-29T23:57:08.696Z,15.93
